sensor_id;sensor_type;location;lat;lon;timestamp;P1;durP1;ratioP1;P2;durP2;ratioP2
52798;SDS011;38667;42.872;74.622;2023-01-15T00:01:56;298.23;;;124.50;;
52798;SDS011;38667;42.872;74.622;2023-01-15T00:04:22;291.67;;;118.60;;
52798;SDS011;38667;42.872;74.622;2023-01-15T00:06:48;290.17;;;113.40;;
52798;SDS011;38667;42.872;74.622;2023-01-15T00:09:15;258.50;;;105.60;;
52798;SDS011;38667;42.872;74.622;2023-01-15T00:11:43;256.13;;;103.30;;
52798;SDS011;38667;42.872;74.622;2023-01-15T00:14:09;233.20;;;101.90;;
52798;SDS011;38667;42.872;74.622;2023-01-15T00:16:35;235.60;;;92.73;;
52798;SDS011;38667;42.872;74.622;2023-01-15T00:19:02;256.83;;;95.17;;
52798;SDS011;38667;42.872;74.622;2023-01-15T00:21:28;246.93;;;90.07;;
52798;SDS011;38667;42.872;74.622;2023-01-15T00:23:55;197.70;;;82.57;;
52798;SDS011;38667;42.872;74.622;2023-01-15T00:26:21;210.13;;;78.33;;
52798;SDS011;38667;42.872;74.622;2023-01-15T00:28:53;202.37;;;78.63;;
52798;SDS011;38667;42.872;74.622;2023-01-15T00:31:20;200.67;;;82.53;;
52798;SDS011;38667;42.872;74.622;2023-01-15T00:33:46;210.37;;;77.00;;
52798;SDS011;38667;42.872;74.622;2023-01-15T00:36:12;201.87;;;80.70;;
52798;SDS011;38667;42.872;74.622;2023-01-15T00:38:38;213.63;;;84.07;;
52798;SDS011;38667;42.872;74.622;2023-01-15T00:41:05;246.87;;;83.33;;
52798;SDS011;38667;42.872;74.622;2023-01-15T00:43:31;251.43;;;91.80;;
52798;SDS011;38667;42.872;74.622;2023-01-15T00:45:59;252.50;;;89.33;;
52798;SDS011;38667;42.872;74.622;2023-01-15T00:48:25;224.30;;;88.07;;
52798;SDS011;38667;42.872;74.622;2023-01-15T00:50:52;226.17;;;88.73;;
52798;SDS011;38667;42.872;74.622;2023-01-15T00:53:18;244.37;;;91.90;;
52798;SDS011;38667;42.872;74.622;2023-01-15T00:55:44;205.47;;;87.07;;
52798;SDS011;38667;42.872;74.622;2023-01-15T00:58:11;260.37;;;104.57;;
52798;SDS011;38667;42.872;74.622;2023-01-15T01:00:37;253.33;;;96.13;;
52798;SDS011;38667;42.872;74.622;2023-01-15T01:03:05;232.33;;;87.90;;
52798;SDS011;38667;42.872;74.622;2023-01-15T01:05:31;218.70;;;93.50;;
52798;SDS011;38667;42.872;74.622;2023-01-15T01:07:58;240.47;;;98.07;;
52798;SDS011;38667;42.872;74.622;2023-01-15T01:10:24;256.70;;;100.43;;
52798;SDS011;38667;42.872;74.622;2023-01-15T01:12:50;292.07;;;114.53;;
52798;SDS011;38667;42.872;74.622;2023-01-15T01:15:17;269.73;;;104.53;;
52798;SDS011;38667;42.872;74.622;2023-01-15T01:17:43;269.60;;;108.03;;
52798;SDS011;38667;42.872;74.622;2023-01-15T01:20:13;273.60;;;104.57;;
52798;SDS011;38667;42.872;74.622;2023-01-15T01:22:41;222.03;;;92.57;;
52798;SDS011;38667;42.872;74.622;2023-01-15T01:25:08;193.70;;;77.27;;
52798;SDS011;38667;42.872;74.622;2023-01-15T01:27:35;247.77;;;97.03;;
52798;SDS011;38667;42.872;74.622;2023-01-15T01:30:02;267.93;;;93.47;;
52798;SDS011;38667;42.872;74.622;2023-01-15T01:32:29;265.60;;;100.77;;
52798;SDS011;38667;42.872;74.622;2023-01-15T01:34:55;255.50;;;98.73;;
52798;SDS011;38667;42.872;74.622;2023-01-15T01:37:23;286.13;;;108.13;;
52798;SDS011;38667;42.872;74.622;2023-01-15T01:39:49;299.23;;;105.53;;
52798;SDS011;38667;42.872;74.622;2023-01-15T01:42:16;272.20;;;97.80;;
52798;SDS011;38667;42.872;74.622;2023-01-15T01:45:03;260.13;;;101.30;;
52798;SDS011;38667;42.872;74.622;2023-01-15T01:47:41;253.47;;;102.90;;
52798;SDS011;38667;42.872;74.622;2023-01-15T01:50:08;264.10;;;102.93;;
52798;SDS011;38667;42.872;74.622;2023-01-15T01:52:40;226.93;;;87.67;;
52798;SDS011;38667;42.872;74.622;2023-01-15T01:55:10;230.30;;;96.80;;
52798;SDS011;38667;42.872;74.622;2023-01-15T01:57:38;229.27;;;92.50;;
52798;SDS011;38667;42.872;74.622;2023-01-15T02:00:05;246.40;;;100.27;;
52798;SDS011;38667;42.872;74.622;2023-01-15T02:02:33;282.30;;;105.23;;
52798;SDS011;38667;42.872;74.622;2023-01-15T02:05:00;225.17;;;93.00;;
52798;SDS011;38667;42.872;74.622;2023-01-15T02:07:28;249.93;;;98.50;;
52798;SDS011;38667;42.872;74.622;2023-01-15T02:09:56;244.70;;;96.97;;
52798;SDS011;38667;42.872;74.622;2023-01-15T02:12:23;256.70;;;100.00;;
52798;SDS011;38667;42.872;74.622;2023-01-15T02:14:54;276.93;;;104.43;;
52798;SDS011;38667;42.872;74.622;2023-01-15T02:17:28;244.47;;;97.03;;
52798;SDS011;38667;42.872;74.622;2023-01-15T02:20:09;264.97;;;104.03;;
52798;SDS011;38667;42.872;74.622;2023-01-15T02:22:49;275.23;;;102.10;;
52798;SDS011;38667;42.872;74.622;2023-01-15T02:25:27;242.57;;;95.90;;
52798;SDS011;38667;42.872;74.622;2023-01-15T02:28:06;220.67;;;102.87;;
52798;SDS011;38667;42.872;74.622;2023-01-15T02:30:41;296.30;;;106.97;;
52798;SDS011;38667;42.872;74.622;2023-01-15T02:33:12;263.73;;;106.50;;
52798;SDS011;38667;42.872;74.622;2023-01-15T02:35:43;281.80;;;111.57;;
52798;SDS011;38667;42.872;74.622;2023-01-15T02:38:14;255.40;;;94.70;;
52798;SDS011;38667;42.872;74.622;2023-01-15T02:40:42;228.03;;;88.50;;
52798;SDS011;38667;42.872;74.622;2023-01-15T02:43:12;204.60;;;78.27;;
52798;SDS011;38667;42.872;74.622;2023-01-15T02:45:42;203.53;;;79.37;;
52798;SDS011;38667;42.872;74.622;2023-01-15T02:48:13;203.93;;;79.73;;
52798;SDS011;38667;42.872;74.622;2023-01-15T02:50:43;212.80;;;84.67;;
52798;SDS011;38667;42.872;74.622;2023-01-15T02:53:13;227.53;;;84.57;;
52798;SDS011;38667;42.872;74.622;2023-01-15T02:55:45;194.93;;;67.57;;
52798;SDS011;38667;42.872;74.622;2023-01-15T02:58:15;188.83;;;69.43;;
52798;SDS011;38667;42.872;74.622;2023-01-15T03:00:45;171.37;;;66.17;;
52798;SDS011;38667;42.872;74.622;2023-01-15T03:03:15;163.83;;;64.23;;
52798;SDS011;38667;42.872;74.622;2023-01-15T03:05:47;276.50;;;99.37;;
52798;SDS011;38667;42.872;74.622;2023-01-15T03:08:18;262.77;;;102.07;;
52798;SDS011;38667;42.872;74.622;2023-01-15T03:10:46;337.50;;;119.93;;
52798;SDS011;38667;42.872;74.622;2023-01-15T03:13:18;365.77;;;142.37;;
52798;SDS011;38667;42.872;74.622;2023-01-15T03:15:52;393.07;;;149.10;;
52798;SDS011;38667;42.872;74.622;2023-01-15T03:18:22;355.07;;;134.67;;
52798;SDS011;38667;42.872;74.622;2023-01-15T03:20:52;362.63;;;140.97;;
52798;SDS011;38667;42.872;74.622;2023-01-15T03:23:23;319.67;;;122.80;;
52798;SDS011;38667;42.872;74.622;2023-01-15T03:25:53;357.17;;;137.27;;
52798;SDS011;38667;42.872;74.622;2023-01-15T03:28:22;327.37;;;128.07;;
52798;SDS011;38667;42.872;74.622;2023-01-15T03:30:50;265.00;;;110.97;;
52798;SDS011;38667;42.872;74.622;2023-01-15T03:33:17;349.10;;;132.33;;
52798;SDS011;38667;42.872;74.622;2023-01-15T03:35:45;295.70;;;118.50;;
52798;SDS011;38667;42.872;74.622;2023-01-15T03:38:14;301.60;;;120.00;;
52798;SDS011;38667;42.872;74.622;2023-01-15T03:40:45;320.07;;;126.07;;
52798;SDS011;38667;42.872;74.622;2023-01-15T03:43:17;338.73;;;127.13;;
52798;SDS011;38667;42.872;74.622;2023-01-15T03:45:53;325.87;;;121.37;;
52798;SDS011;38667;42.872;74.622;2023-01-15T03:48:24;330.10;;;130.33;;
52798;SDS011;38667;42.872;74.622;2023-01-15T03:51:00;308.97;;;127.03;;
52798;SDS011;38667;42.872;74.622;2023-01-15T03:53:33;361.47;;;136.53;;
52798;SDS011;38667;42.872;74.622;2023-01-15T03:56:05;427.67;;;160.37;;
52798;SDS011;38667;42.872;74.622;2023-01-15T03:58:39;421.67;;;155.17;;
52798;SDS011;38667;42.872;74.622;2023-01-15T04:01:08;375.30;;;130.57;;
52798;SDS011;38667;42.872;74.622;2023-01-15T04:03:37;315.57;;;113.53;;
52798;SDS011;38667;42.872;74.622;2023-01-15T04:06:04;218.83;;;79.67;;
52798;SDS011;38667;42.872;74.622;2023-01-15T04:08:32;249.30;;;87.70;;
52798;SDS011;38667;42.872;74.622;2023-01-15T04:11:02;245.27;;;88.93;;
52798;SDS011;38667;42.872;74.622;2023-01-15T04:13:29;241.43;;;86.47;;
52798;SDS011;38667;42.872;74.622;2023-01-15T04:15:57;270.80;;;94.90;;
52798;SDS011;38667;42.872;74.622;2023-01-15T04:18:24;242.33;;;85.00;;
52798;SDS011;38667;42.872;74.622;2023-01-15T04:20:50;271.67;;;91.90;;
52798;SDS011;38667;42.872;74.622;2023-01-15T04:23:17;274.93;;;98.10;;
52798;SDS011;38667;42.872;74.622;2023-01-15T04:25:43;266.50;;;95.77;;
52798;SDS011;38667;42.872;74.622;2023-01-15T04:28:10;274.97;;;104.13;;
52798;SDS011;38667;42.872;74.622;2023-01-15T04:30:36;508.57;;;201.57;;
52798;SDS011;38667;42.872;74.622;2023-01-15T04:33:04;557.97;;;223.43;;
52798;SDS011;38667;42.872;74.622;2023-01-15T04:35:30;549.13;;;226.47;;
52798;SDS011;38667;42.872;74.622;2023-01-15T04:37:57;632.43;;;253.30;;
52798;SDS011;38667;42.872;74.622;2023-01-15T04:40:24;563.97;;;223.23;;
52798;SDS011;38667;42.872;74.622;2023-01-15T04:42:50;534.80;;;205.33;;
52798;SDS011;38667;42.872;74.622;2023-01-15T04:45:19;494.63;;;192.67;;
52798;SDS011;38667;42.872;74.622;2023-01-15T04:47:46;505.97;;;195.63;;
52798;SDS011;38667;42.872;74.622;2023-01-15T04:50:14;791.00;;;341.92;;
52798;SDS011;38667;42.872;74.622;2023-01-15T04:52:41;616.20;;;246.37;;
52798;SDS011;38667;42.872;74.622;2023-01-15T04:55:07;578.77;;;215.57;;
52798;SDS011;38667;42.872;74.622;2023-01-15T04:57:34;465.70;;;175.80;;
52798;SDS011;38667;42.872;74.622;2023-01-15T05:00:00;497.87;;;194.03;;
52798;SDS011;38667;42.872;74.622;2023-01-15T05:02:27;460.10;;;181.73;;
52798;SDS011;38667;42.872;74.622;2023-01-15T05:04:54;483.67;;;183.23;;
52798;SDS011;38667;42.872;74.622;2023-01-15T05:07:22;408.03;;;158.03;;
52798;SDS011;38667;42.872;74.622;2023-01-15T05:09:48;416.43;;;149.60;;
52798;SDS011;38667;42.872;74.622;2023-01-15T05:12:14;409.30;;;147.13;;
52798;SDS011;38667;42.872;74.622;2023-01-15T05:14:41;434.73;;;165.00;;
52798;SDS011;38667;42.872;74.622;2023-01-15T05:17:07;385.50;;;149.70;;
52798;SDS011;38667;42.872;74.622;2023-01-15T05:19:33;429.33;;;164.10;;
52798;SDS011;38667;42.872;74.622;2023-01-15T05:22:00;447.67;;;173.27;;
52798;SDS011;38667;42.872;74.622;2023-01-15T05:24:27;453.43;;;178.23;;
52798;SDS011;38667;42.872;74.622;2023-01-15T05:26:54;455.07;;;166.30;;
52798;SDS011;38667;42.872;74.622;2023-01-15T05:29:20;487.23;;;180.60;;
52798;SDS011;38667;42.872;74.622;2023-01-15T05:31:46;463.47;;;169.93;;
52798;SDS011;38667;42.872;74.622;2023-01-15T05:34:13;460.13;;;166.47;;
52798;SDS011;38667;42.872;74.622;2023-01-15T05:36:39;471.93;;;173.13;;
52798;SDS011;38667;42.872;74.622;2023-01-15T05:39:06;460.27;;;175.37;;
52798;SDS011;38667;42.872;74.622;2023-01-15T05:41:34;477.40;;;166.83;;
52798;SDS011;38667;42.872;74.622;2023-01-15T05:44:01;444.00;;;162.90;;
52798;SDS011;38667;42.872;74.622;2023-01-15T05:46:29;416.77;;;159.03;;
52798;SDS011;38667;42.872;74.622;2023-01-15T05:48:58;445.67;;;164.20;;
52798;SDS011;38667;42.872;74.622;2023-01-15T05:51:25;452.23;;;164.80;;
52798;SDS011;38667;42.872;74.622;2023-01-15T05:53:51;456.93;;;173.87;;
52798;SDS011;38667;42.872;74.622;2023-01-15T05:56:18;467.57;;;176.90;;
52798;SDS011;38667;42.872;74.622;2023-01-15T05:58:46;481.67;;;178.77;;
52798;SDS011;38667;42.872;74.622;2023-01-15T06:01:12;485.83;;;182.47;;
52798;SDS011;38667;42.872;74.622;2023-01-15T06:03:39;498.20;;;182.83;;
52798;SDS011;38667;42.872;74.622;2023-01-15T06:06:05;498.90;;;181.73;;
52798;SDS011;38667;42.872;74.622;2023-01-15T06:08:32;490.60;;;183.47;;
52798;SDS011;38667;42.872;74.622;2023-01-15T06:10:58;522.50;;;200.07;;
52798;SDS011;38667;42.872;74.622;2023-01-15T06:13:24;526.27;;;197.13;;
52798;SDS011;38667;42.872;74.622;2023-01-15T06:15:52;559.43;;;226.60;;
52798;SDS011;38667;42.872;74.622;2023-01-15T06:18:19;577.60;;;226.27;;
52798;SDS011;38667;42.872;74.622;2023-01-15T06:20:46;536.47;;;202.67;;
52798;SDS011;38667;42.872;74.622;2023-01-15T06:23:13;553.50;;;215.03;;
52798;SDS011;38667;42.872;74.622;2023-01-15T06:25:41;566.53;;;221.93;;
52798;SDS011;38667;42.872;74.622;2023-01-15T06:28:08;559.70;;;221.67;;
52798;SDS011;38667;42.872;74.622;2023-01-15T06:30:36;558.27;;;215.87;;
52798;SDS011;38667;42.872;74.622;2023-01-15T06:33:05;719.60;;;277.23;;
52798;SDS011;38667;42.872;74.622;2023-01-15T06:35:31;630.77;;;235.30;;
52798;SDS011;38667;42.872;74.622;2023-01-15T06:37:58;531.17;;;200.63;;
52798;SDS011;38667;42.872;74.622;2023-01-15T06:40:24;529.57;;;199.87;;
52798;SDS011;38667;42.872;74.622;2023-01-15T06:42:50;497.77;;;193.23;;
52798;SDS011;38667;42.872;74.622;2023-01-15T06:45:17;528.50;;;197.40;;
52798;SDS011;38667;42.872;74.622;2023-01-15T06:47:43;488.50;;;180.30;;
52798;SDS011;38667;42.872;74.622;2023-01-15T06:50:12;459.13;;;165.77;;
52798;SDS011;38667;42.872;74.622;2023-01-15T06:52:39;452.30;;;170.20;;
52798;SDS011;38667;42.872;74.622;2023-01-15T06:55:05;453.17;;;162.23;;
52798;SDS011;38667;42.872;74.622;2023-01-15T06:57:32;395.60;;;140.83;;
52798;SDS011;38667;42.872;74.622;2023-01-15T07:00:02;391.73;;;138.63;;
52798;SDS011;38667;42.872;74.622;2023-01-15T07:02:28;416.33;;;154.03;;
52798;SDS011;38667;42.872;74.622;2023-01-15T07:04:55;472.87;;;164.80;;
52798;SDS011;38667;42.872;74.622;2023-01-15T07:07:23;441.57;;;161.07;;
52798;SDS011;38667;42.872;74.622;2023-01-15T07:09:49;409.33;;;146.77;;
52798;SDS011;38667;42.872;74.622;2023-01-15T07:12:15;411.37;;;148.07;;
52798;SDS011;38667;42.872;74.622;2023-01-15T07:14:42;389.17;;;146.57;;
52798;SDS011;38667;42.872;74.622;2023-01-15T07:17:08;418.50;;;148.90;;
52798;SDS011;38667;42.872;74.622;2023-01-15T07:19:36;379.67;;;134.70;;
52798;SDS011;38667;42.872;74.622;2023-01-15T07:22:02;352.77;;;126.57;;
52798;SDS011;38667;42.872;74.622;2023-01-15T07:24:30;324.73;;;123.30;;
52798;SDS011;38667;42.872;74.622;2023-01-15T07:26:57;366.03;;;130.93;;
52798;SDS011;38667;42.872;74.622;2023-01-15T07:29:24;352.93;;;134.23;;
52798;SDS011;38667;42.872;74.622;2023-01-15T07:31:50;328.43;;;127.60;;
52798;SDS011;38667;42.872;74.622;2023-01-15T07:34:17;375.40;;;139.73;;
52798;SDS011;38667;42.872;74.622;2023-01-15T07:36:46;375.63;;;138.10;;
52798;SDS011;38667;42.872;74.622;2023-01-15T07:39:12;345.87;;;135.50;;
52798;SDS011;38667;42.872;74.622;2023-01-15T07:41:40;412.50;;;149.87;;
52798;SDS011;38667;42.872;74.622;2023-01-15T07:44:08;380.90;;;145.33;;
52798;SDS011;38667;42.872;74.622;2023-01-15T07:46:34;375.63;;;151.00;;
52798;SDS011;38667;42.872;74.622;2023-01-15T07:49:01;394.10;;;153.03;;
52798;SDS011;38667;42.872;74.622;2023-01-15T07:51:27;441.50;;;166.63;;
52798;SDS011;38667;42.872;74.622;2023-01-15T07:53:53;398.80;;;151.43;;
52798;SDS011;38667;42.872;74.622;2023-01-15T07:56:20;409.77;;;149.03;;
52798;SDS011;38667;42.872;74.622;2023-01-15T07:58:48;423.13;;;153.67;;
52798;SDS011;38667;42.872;74.622;2023-01-15T08:01:16;384.20;;;155.47;;
52798;SDS011;38667;42.872;74.622;2023-01-15T08:03:43;377.40;;;143.57;;
52798;SDS011;38667;42.872;74.622;2023-01-15T08:06:09;414.07;;;162.33;;
52798;SDS011;38667;42.872;74.622;2023-01-15T08:08:36;405.00;;;157.60;;
52798;SDS011;38667;42.872;74.622;2023-01-15T08:11:02;414.27;;;162.97;;
52798;SDS011;38667;42.872;74.622;2023-01-15T08:13:28;415.40;;;158.00;;
52798;SDS011;38667;42.872;74.622;2023-01-15T08:15:58;397.50;;;155.33;;
52798;SDS011;38667;42.872;74.622;2023-01-15T08:18:24;417.10;;;155.17;;
52798;SDS011;38667;42.872;74.622;2023-01-15T08:20:51;407.53;;;154.17;;
52798;SDS011;38667;42.872;74.622;2023-01-15T08:23:17;383.57;;;149.10;;
52798;SDS011;38667;42.872;74.622;2023-01-15T08:25:43;388.57;;;143.10;;
52798;SDS011;38667;42.872;74.622;2023-01-15T08:28:10;352.30;;;131.77;;
52798;SDS011;38667;42.872;74.622;2023-01-15T08:30:36;344.67;;;130.83;;
52798;SDS011;38667;42.872;74.622;2023-01-15T08:33:04;338.67;;;129.50;;
52798;SDS011;38667;42.872;74.622;2023-01-15T08:35:30;338.50;;;129.33;;
52798;SDS011;38667;42.872;74.622;2023-01-15T08:37:57;345.17;;;133.83;;
52798;SDS011;38667;42.872;74.622;2023-01-15T08:40:23;360.20;;;137.73;;
52798;SDS011;38667;42.872;74.622;2023-01-15T08:42:49;334.43;;;130.43;;
52798;SDS011;38667;42.872;74.622;2023-01-15T08:45:16;358.17;;;133.60;;
52798;SDS011;38667;42.872;74.622;2023-01-15T08:47:42;363.33;;;136.50;;
52798;SDS011;38667;42.872;74.622;2023-01-15T08:50:10;334.47;;;130.53;;
52798;SDS011;38667;42.872;74.622;2023-01-15T08:52:36;358.63;;;130.67;;
52798;SDS011;38667;42.872;74.622;2023-01-15T08:55:03;343.13;;;126.73;;
52798;SDS011;38667;42.872;74.622;2023-01-15T08:57:30;365.53;;;134.03;;
52798;SDS011;38667;42.872;74.622;2023-01-15T08:59:57;342.90;;;132.00;;
52798;SDS011;38667;42.872;74.622;2023-01-15T09:02:23;334.27;;;133.97;;
52798;SDS011;38667;42.872;74.622;2023-01-15T09:04:49;335.80;;;129.97;;
52798;SDS011;38667;42.872;74.622;2023-01-15T09:07:17;359.03;;;129.90;;
52798;SDS011;38667;42.872;74.622;2023-01-15T09:09:43;365.33;;;137.17;;
52798;SDS011;38667;42.872;74.622;2023-01-15T09:12:10;388.90;;;138.53;;
52798;SDS011;38667;42.872;74.622;2023-01-15T09:14:36;352.93;;;137.00;;
52798;SDS011;38667;42.872;74.622;2023-01-15T09:17:02;359.27;;;139.13;;
52798;SDS011;38667;42.872;74.622;2023-01-15T09:19:29;372.93;;;137.27;;
52798;SDS011;38667;42.872;74.622;2023-01-15T09:21:55;389.27;;;147.50;;
52798;SDS011;38667;42.872;74.622;2023-01-15T09:24:23;437.57;;;166.97;;
52798;SDS011;38667;42.872;74.622;2023-01-15T09:26:49;425.00;;;154.67;;
52798;SDS011;38667;42.872;74.622;2023-01-15T09:29:16;423.20;;;152.87;;
52798;SDS011;38667;42.872;74.622;2023-01-15T09:31:42;425.63;;;157.20;;
52798;SDS011;38667;42.872;74.622;2023-01-15T09:34:09;418.23;;;163.17;;
52798;SDS011;38667;42.872;74.622;2023-01-15T09:36:35;428.17;;;159.23;;
52798;SDS011;38667;42.872;74.622;2023-01-15T09:39:02;411.47;;;153.60;;
52798;SDS011;38667;42.872;74.622;2023-01-15T09:41:32;417.20;;;158.73;;
52798;SDS011;38667;42.872;74.622;2023-01-15T09:44:17;412.27;;;155.30;;
52798;SDS011;38667;42.872;74.622;2023-01-15T09:47:02;416.53;;;148.90;;
52798;SDS011;38667;42.872;74.622;2023-01-15T09:49:37;411.27;;;153.87;;
52798;SDS011;38667;42.872;74.622;2023-01-15T09:52:14;415.30;;;153.17;;
52798;SDS011;38667;42.872;74.622;2023-01-15T09:54:52;433.87;;;162.43;;
52798;SDS011;38667;42.872;74.622;2023-01-15T09:57:27;413.30;;;156.00;;
52798;SDS011;38667;42.872;74.622;2023-01-15T09:59:55;426.80;;;162.13;;
52798;SDS011;38667;42.872;74.622;2023-01-15T10:02:24;436.73;;;166.17;;
52798;SDS011;38667;42.872;74.622;2023-01-15T10:04:56;431.37;;;161.40;;
52798;SDS011;38667;42.872;74.622;2023-01-15T10:07:26;447.47;;;166.43;;
52798;SDS011;38667;42.872;74.622;2023-01-15T10:10:00;453.00;;;169.37;;
52798;SDS011;38667;42.872;74.622;2023-01-15T10:12:35;426.80;;;164.67;;
52798;SDS011;38667;42.872;74.622;2023-01-15T10:15:16;454.93;;;174.67;;
52798;SDS011;38667;42.872;74.622;2023-01-15T10:17:48;481.27;;;189.73;;
52798;SDS011;38667;42.872;74.622;2023-01-15T10:20:28;445.87;;;180.80;;
52798;SDS011;38667;42.872;74.622;2023-01-15T10:23:25;452.90;;;184.77;;
52798;SDS011;38667;42.872;74.622;2023-01-15T10:26:01;454.27;;;178.87;;
52798;SDS011;38667;42.872;74.622;2023-01-15T10:28:44;451.87;;;178.30;;
52798;SDS011;38667;42.872;74.622;2023-01-15T10:31:22;468.13;;;181.63;;
52798;SDS011;38667;42.872;74.622;2023-01-15T10:33:59;493.00;;;193.93;;
52798;SDS011;38667;42.872;74.622;2023-01-15T10:36:41;508.17;;;200.73;;
52798;SDS011;38667;42.872;74.622;2023-01-15T10:39:15;499.60;;;190.53;;
52798;SDS011;38667;42.872;74.622;2023-01-15T10:41:47;513.83;;;199.30;;
52798;SDS011;38667;42.872;74.622;2023-01-15T10:44:27;474.43;;;182.17;;
52798;SDS011;38667;42.872;74.622;2023-01-15T10:47:07;455.30;;;172.23;;
52798;SDS011;38667;42.872;74.622;2023-01-15T10:49:37;464.53;;;186.80;;
52798;SDS011;38667;42.872;74.622;2023-01-15T10:52:07;474.70;;;178.27;;
52798;SDS011;38667;42.872;74.622;2023-01-15T10:54:44;444.20;;;163.10;;
52798;SDS011;38667;42.872;74.622;2023-01-15T10:57:14;447.63;;;161.97;;
52798;SDS011;38667;42.872;74.622;2023-01-15T10:59:48;460.37;;;178.97;;
52798;SDS011;38667;42.872;74.622;2023-01-15T11:02:22;469.03;;;182.23;;
52798;SDS011;38667;42.872;74.622;2023-01-15T11:04:52;455.33;;;169.17;;
52798;SDS011;38667;42.872;74.622;2023-01-15T11:07:19;482.17;;;180.67;;
52798;SDS011;38667;42.872;74.622;2023-01-15T11:09:48;508.30;;;201.13;;
52798;SDS011;38667;42.872;74.622;2023-01-15T11:12:21;543.10;;;220.43;;
52798;SDS011;38667;42.872;74.622;2023-01-15T11:14:52;542.00;;;214.23;;
52798;SDS011;38667;42.872;74.622;2023-01-15T11:17:18;501.50;;;197.17;;
52798;SDS011;38667;42.872;74.622;2023-01-15T11:19:46;480.00;;;192.60;;
52798;SDS011;38667;42.872;74.622;2023-01-15T11:22:18;484.33;;;190.97;;
52798;SDS011;38667;42.872;74.622;2023-01-15T11:24:45;514.73;;;203.20;;
52798;SDS011;38667;42.872;74.622;2023-01-15T11:27:18;556.83;;;231.90;;
52798;SDS011;38667;42.872;74.622;2023-01-15T11:29:50;546.83;;;230.87;;
52798;SDS011;38667;42.872;74.622;2023-01-15T11:32:22;579.63;;;241.33;;
52798;SDS011;38667;42.872;74.622;2023-01-15T11:34:53;574.43;;;241.50;;
52798;SDS011;38667;42.872;74.622;2023-01-15T11:37:20;558.90;;;224.40;;
52798;SDS011;38667;42.872;74.622;2023-01-15T11:39:53;627.40;;;265.60;;
52798;SDS011;38667;42.872;74.622;2023-01-15T11:42:20;672.23;;;271.20;;
52798;SDS011;38667;42.872;74.622;2023-01-15T11:44:51;638.57;;;272.63;;
52798;SDS011;38667;42.872;74.622;2023-01-15T11:47:20;531.47;;;210.33;;
52798;SDS011;38667;42.872;74.622;2023-01-15T11:49:49;533.13;;;214.87;;
52798;SDS011;38667;42.872;74.622;2023-01-15T11:52:16;520.10;;;197.67;;
52798;SDS011;38667;42.872;74.622;2023-01-15T11:54:47;535.43;;;216.07;;
52798;SDS011;38667;42.872;74.622;2023-01-15T11:57:22;553.60;;;226.73;;
52798;SDS011;38667;42.872;74.622;2023-01-15T11:59:50;568.90;;;234.27;;
52798;SDS011;38667;42.872;74.622;2023-01-15T12:02:20;575.23;;;230.87;;
52798;SDS011;38667;42.872;74.622;2023-01-15T12:04:56;580.43;;;233.93;;
52798;SDS011;38667;42.872;74.622;2023-01-15T12:07:25;568.67;;;227.63;;
52798;SDS011;38667;42.872;74.622;2023-01-15T12:10:05;539.67;;;215.47;;
52798;SDS011;38667;42.872;74.622;2023-01-15T12:12:49;508.63;;;191.33;;
52798;SDS011;38667;42.872;74.622;2023-01-15T12:15:31;494.13;;;181.73;;
52798;SDS011;38667;42.872;74.622;2023-01-15T12:18:13;458.87;;;170.97;;
52798;SDS011;38667;42.872;74.622;2023-01-15T12:20:53;450.00;;;171.03;;
52798;SDS011;38667;42.872;74.622;2023-01-15T12:23:31;448.70;;;163.57;;
52798;SDS011;38667;42.872;74.622;2023-01-15T12:26:11;425.47;;;161.43;;
52798;SDS011;38667;42.872;74.622;2023-01-15T12:28:46;399.00;;;144.93;;
52798;SDS011;38667;42.872;74.622;2023-01-15T12:31:19;438.43;;;164.30;;
52798;SDS011;38667;42.872;74.622;2023-01-15T12:33:52;425.23;;;157.17;;
52798;SDS011;38667;42.872;74.622;2023-01-15T12:36:25;417.57;;;149.33;;
52798;SDS011;38667;42.872;74.622;2023-01-15T12:38:55;423.57;;;160.03;;
52798;SDS011;38667;42.872;74.622;2023-01-15T12:41:25;407.17;;;159.77;;
52798;SDS011;38667;42.872;74.622;2023-01-15T12:43:55;410.97;;;153.03;;
52798;SDS011;38667;42.872;74.622;2023-01-15T12:46:24;445.70;;;167.07;;
52798;SDS011;38667;42.872;74.622;2023-01-15T12:48:56;401.63;;;157.87;;
52798;SDS011;38667;42.872;74.622;2023-01-15T12:51:31;451.70;;;165.97;;
52798;SDS011;38667;42.872;74.622;2023-01-15T12:54:03;450.57;;;167.00;;
52798;SDS011;38667;42.872;74.622;2023-01-15T12:56:33;396.37;;;150.50;;
52798;SDS011;38667;42.872;74.622;2023-01-15T12:59:09;402.00;;;145.97;;
52798;SDS011;38667;42.872;74.622;2023-01-15T13:01:44;385.33;;;150.03;;
52798;SDS011;38667;42.872;74.622;2023-01-15T13:04:21;416.70;;;150.37;;
52798;SDS011;38667;42.872;74.622;2023-01-15T13:06:52;369.97;;;141.33;;
52798;SDS011;38667;42.872;74.622;2023-01-15T13:09:27;390.23;;;149.23;;
52798;SDS011;38667;42.872;74.622;2023-01-15T13:11:59;386.00;;;142.93;;
52798;SDS011;38667;42.872;74.622;2023-01-15T13:14:26;420.87;;;156.47;;
52798;SDS011;38667;42.872;74.622;2023-01-15T13:16:52;400.07;;;142.13;;
52798;SDS011;38667;42.872;74.622;2023-01-15T13:19:30;369.43;;;139.80;;
52798;SDS011;38667;42.872;74.622;2023-01-15T13:22:04;374.17;;;142.53;;
52798;SDS011;38667;42.872;74.622;2023-01-15T13:24:40;380.50;;;150.40;;
52798;SDS011;38667;42.872;74.622;2023-01-15T13:27:23;424.20;;;158.40;;
52798;SDS011;38667;42.872;74.622;2023-01-15T13:30:03;408.87;;;154.47;;
52798;SDS011;38667;42.872;74.622;2023-01-15T13:32:41;455.87;;;168.87;;
52798;SDS011;38667;42.872;74.622;2023-01-15T13:35:12;398.77;;;161.53;;
52798;SDS011;38667;42.872;74.622;2023-01-15T13:37:46;402.13;;;148.30;;
52798;SDS011;38667;42.872;74.622;2023-01-15T13:40:16;360.13;;;138.43;;
52798;SDS011;38667;42.872;74.622;2023-01-15T13:42:49;405.70;;;152.73;;
52798;SDS011;38667;42.872;74.622;2023-01-15T13:45:20;423.63;;;151.50;;
52798;SDS011;38667;42.872;74.622;2023-01-15T13:47:53;419.43;;;152.40;;
52798;SDS011;38667;42.872;74.622;2023-01-15T13:50:25;410.37;;;155.33;;
52798;SDS011;38667;42.872;74.622;2023-01-15T13:52:58;419.73;;;152.37;;
52798;SDS011;38667;42.872;74.622;2023-01-15T13:55:28;428.13;;;161.43;;
52798;SDS011;38667;42.872;74.622;2023-01-15T13:57:57;470.87;;;174.57;;
52798;SDS011;38667;42.872;74.622;2023-01-15T14:00:27;515.13;;;197.77;;